Wilson Mersin — P3PA6 — position and weather

sailwx.info

Track history (hours):
 
Tides and Currents Weather Stations Pressure Air Temp Water Temp Dewpoint Dewpoint Depression Visibility Wind Speed Wind Dir Waves Ship Positions

Wilson Mersin

Last reported at 2015-Jan-25 21:32 UTC. Time now 2015-Jan-25 22:21 UTC.
Position N 55°36' E 006°29'.

Length 107 m; draft 6.2 m.

Type: Cargo ship. MMSI: 210072000.

Date/timePositionNaut miles runAvg speedWind from/ knotsBaromVisibWave heightAir tempDewpointWater temp
2015-Jan-25 21:32N 55°36' E 006°29'1211.8
2015-Jan-25 20:32N 55°46' E 006°41'17410.9
2015-Jan-25 04:31N 57°48' E 010°27'1010.0
2015-Jan-25 03:33N 57°48' E 010°45'1111.1
2015-Jan-25 02:33N 57°41' E 010°60'1211.9
2015-Jan-25 01:33N 57°33' E 011°16'1211.7
2015-Jan-25 00:34N 57°23' E 011°29'1212.1
2015-Jan-24 23:33N 57°12' E 011°37'1111.4
2015-Jan-24 22:33N 57°01' E 011°44'1211.6
2015-Jan-24 21:33N 56°50' E 011°51'1211.6
2015-Jan-24 20:33N 56°39' E 011°57'1211.5
2015-Jan-24 19:33N 56°28' E 012°04'1111.3
2015-Jan-24 18:33N 56°19' E 012°16'1313.0
2015-Jan-24 17:33N 56°09' E 012°30'1313.2
2015-Jan-24 16:33N 55°58' E 012°43'1312.6
2015-Jan-24 15:33N 55°45' E 012°42'1212.2
2015-Jan-24 14:33N 55°33' E 012°43'1111.5
2015-Jan-24 13:33N 55°21' E 012°41'9 9.3
2015-Jan-24 12:33N 55°16' E 012°54'1111.0
2015-Jan-24 11:33N 55°15' E 013°13'3511.6
2015-Jan-24 08:31N 55°14' E 014°15'1211.7
2015-Jan-24 07:28N 55°22' E 014°31'1110.9
2015-Jan-24 06:25N 55°27' E 014°49'1011.1
2015-Jan-24 05:33N 55°29' E 015°06'1411.5
2015-Jan-24 04:22N 55°33' E 015°29'  
2015-Jan-19 07:33N 55°30' E 015°27'1312.9
2015-Jan-19 06:33N 55°27' E 015°05'1312.9
2015-Jan-19 05:34N 55°23' E 014°43'1312.9
2015-Jan-19 04:34N 55°15' E 014°26'1312.6
2015-Jan-19 03:33N 55°10' E 014°05'1212.3
2015-Jan-19 02:33N 55°12' E 013°43'1612.9
2015-Jan-19 01:18N 55°14' E 013°15'912.6
2015-Jan-19 00:34N 55°14' E 012°59'1312.8
2015-Jan-18 23:33N 55°18' E 012°38'1211.7
2015-Jan-18 22:34N 55°30' E 012°42'9 9.3
2015-Jan-18 21:34N 55°39' E 012°41'1111.4
2015-Jan-18 20:34N 55°50' E 012°41'1111.3
2015-Jan-18 19:34N 56°02' E 012°38'1010.2
2015-Jan-18 18:33N 56°09' E 012°26'1312.6
2015-Jan-18 17:34N 56°16' E 012°07'2412.1
2015-Jan-18 15:33N 56°39' E 011°55'1212.4
2015-Jan-18 14:33N 56°51' E 011°48'2512.5
2015-Jan-18 12:33N 57°14' E 011°33'1312.9
2015-Jan-18 11:34N 57°26' E 011°22'1212.4
2015-Jan-18 10:34N 57°34' E 011°04'157 8.2
2015-Jan-17 15:33N 58°07' E 006°17'1212.2
2015-Jan-17 14:33N 58°16' E 005°60'1211.7
2015-Jan-17 13:33N 58°24' E 005°43'3511.3
2015-Jan-17 10:26N 58°53' E 005°06'  
Track history (hours):
 
Tides and Currents Weather Stations Pressure Air Temp Water Temp Dewpoint Dewpoint Depression Visibility Wind Speed Wind Dir Waves Ship Positions

Wilson Mersin

Last reported at 2015-Jan-25 21:32 UTC. Time now 2015-Jan-25 22:21 UTC.
Position N 55°36' E 006°29'.

Length 107 m; draft 6.2 m.

Type: Cargo ship. MMSI: 210072000.

Date/timePositionNaut miles runAvg speedWind from/ knotsBaromVisibWave heightAir tempDewpointWater temp
2015-Jan-25 21:32N 55°36' E 006°29'1211.8
2015-Jan-25 20:32N 55°46' E 006°41'17410.9
2015-Jan-25 04:31N 57°48' E 010°27'1010.0
2015-Jan-25 03:33N 57°48' E 010°45'1111.1
2015-Jan-25 02:33N 57°41' E 010°60'1211.9
2015-Jan-25 01:33N 57°33' E 011°16'1211.7
2015-Jan-25 00:34N 57°23' E 011°29'1212.1
2015-Jan-24 23:33N 57°12' E 011°37'1111.4
2015-Jan-24 22:33N 57°01' E 011°44'1211.6
2015-Jan-24 21:33N 56°50' E 011°51'1211.6
2015-Jan-24 20:33N 56°39' E 011°57'1211.5
2015-Jan-24 19:33N 56°28' E 012°04'1111.3
2015-Jan-24 18:33N 56°19' E 012°16'1313.0
2015-Jan-24 17:33N 56°09' E 012°30'1313.2
2015-Jan-24 16:33N 55°58' E 012°43'1312.6
2015-Jan-24 15:33N 55°45' E 012°42'1212.2
2015-Jan-24 14:33N 55°33' E 012°43'1111.5
2015-Jan-24 13:33N 55°21' E 012°41'9 9.3
2015-Jan-24 12:33N 55°16' E 012°54'1111.0
2015-Jan-24 11:33N 55°15' E 013°13'3511.6
2015-Jan-24 08:31N 55°14' E 014°15'1211.7
2015-Jan-24 07:28N 55°22' E 014°31'1110.9
2015-Jan-24 06:25N 55°27' E 014°49'1011.1
2015-Jan-24 05:33N 55°29' E 015°06'1411.5
2015-Jan-24 04:22N 55°33' E 015°29'  
2015-Jan-19 07:33N 55°30' E 015°27'1312.9
2015-Jan-19 06:33N 55°27' E 015°05'1312.9
2015-Jan-19 05:34N 55°23' E 014°43'1312.9
2015-Jan-19 04:34N 55°15' E 014°26'1312.6
2015-Jan-19 03:33N 55°10' E 014°05'1212.3
2015-Jan-19 02:33N 55°12' E 013°43'1612.9
2015-Jan-19 01:18N 55°14' E 013°15'912.6
2015-Jan-19 00:34N 55°14' E 012°59'1312.8
2015-Jan-18 23:33N 55°18' E 012°38'1211.7
2015-Jan-18 22:34N 55°30' E 012°42'9 9.3
2015-Jan-18 21:34N 55°39' E 012°41'1111.4
2015-Jan-18 20:34N 55°50' E 012°41'1111.3
2015-Jan-18 19:34N 56°02' E 012°38'1010.2
2015-Jan-18 18:33N 56°09' E 012°26'1312.6
2015-Jan-18 17:34N 56°16' E 012°07'2412.1
2015-Jan-18 15:33N 56°39' E 011°55'1212.4
2015-Jan-18 14:33N 56°51' E 011°48'2512.5
2015-Jan-18 12:33N 57°14' E 011°33'1312.9
2015-Jan-18 11:34N 57°26' E 011°22'1212.4
2015-Jan-18 10:34N 57°34' E 011°04'157 8.2
2015-Jan-17 15:33N 58°07' E 006°17'1212.2
2015-Jan-17 14:33N 58°16' E 005°60'1211.7
2015-Jan-17 13:33N 58°24' E 005°43'3511.3
2015-Jan-17 10:26N 58°53' E 005°06'  

Dump ship's entire track history